« Back
NWS Peachtree City, Ga » Text Product » CSG Terminal Aerodrome Forecast


Printer-friendly Version
Current Version              Previous Versions:   1  2  3  4  5  6  7  8  9  

Terminal Aerodrome Forecast

916
FTUS42 KFFC 052334
TAFCSG
TAF
KCSG 052334Z 0600/0624 22006KT P6SM VCSH SCT030 BKN040
     FM060100 21004KT P6SM BKN050
     FM061000 25004KT 4SM BR SCT006 BKN012
     FM061400 28005KT P6SM BKN030
     FM061700 24005KT P6SM BKN040 PROB30 0619/0623 5SM TSRA
      BKN025CB=

USA.gov is the U.S. government's official web portal to all federal, state and local government web resources and services.